Airfield :
LOGIN :

Register | Disclaimer

   EN    FR    IT 

 










Legend :    VFR   Marginal VFR   IFR   Intensive IFR   Very Intensive IFR
Visi :
Ceiling :
>= 8 km
>= 3000ft
5 to 8 km
1000 to 3000 ft
1500m to 5 km
500 to 1000 ft
800 to 1500m
200 to 500 ft
< 800m
< 200 ft
Symbols :   Thunderstorms  Fog  Heavy snow  Heavy precipitations  Wind > 20 kt
SIGMETs :     Misc.  Thunderstorms  Icing  Turbulence  Mountain Waves  Volcanic Ashes






- Airport Elevation : 287 ft


LFRL - Lanveoc Poulmic

CURRENT METAR :
  • 161130Z AUTO 04008KT 360V100 9999 FEW045 11/02 Q1029 NOSIG

EXPIRED METARs :
  • 161100Z AUTO 05008KT 010V110 9999 FEW045 10/02 Q1029 NOSIG
  • 161030Z AUTO 06009KT 010V100 9999 FEW038 10/02 Q1029 NOSIG
  • 161000Z AUTO 04010KT 010V070 9999 FEW037 09/02 Q1029 NOSIG
  • 160930Z AUTO 05009KT 010V080 CAVOK 09/02 Q1029 NOSIG
  • 160900Z AUTO 07009KT 010V100 CAVOK 08/02 Q1029 NOSIG

TAF TAF LFRL
Valid from the 16 at 12:00 until the 17 at 12:00 UTC


161100Z 1612/1712 06010KT CAVOK
TEMPO 1616/1620 06010G22KT



MET'MAP, your aeronautical weather chart ! - Copyright ORBIFLY December 2007 - Disclaimer

ORBIFLY MET'MAP TEAM :

Programming & Development : Alexandra Zaïnal
Concept & original design : Baudouin d'Aumeries
Assistance for programming : Marc-Olivier Méhu
Technical & hardware support : Manuel Goepfert

Contact : metmap@orbifly.com




SOURCES & CREDITS :

   NOAA